35.2°F
Current conditions from King Hill
Updated every 5 minutes
 
  Wednesday November 26, 2014

Station Historical Data
Daily Summary for August 16, 2012 Units:  Both    English   Metric
« Previous Day
Next Day »
Daily Weekly Monthly Yearly Custom
  High: Low: Average:
Temperature: 80.1 °F /  26.7 °C 58.5 °F /  14.7 °C 67.4 °F /  19.7 °C
Dew Point: 66.7 °F /  19.3 °C 56.6 °F /  13.7 °C 61.2 °F /  16.2 °C
Humidity: 97% 55% 82%
Wind Speed: 5.0mph /  8km/h - 1.7mph /  2.7km/h
Wind Gust: 11.0mph /  17.7km/h - -
Wind- - SW
Pressure: 29.87 in /  1011.4 hPa 29.78 in /  1008.4 hPa -
Precipitation: 0.00 in /  0 mm    
Historical Graphs
 
 
Tabular Data for August 16, 2012
Time Temperature Dew Point Pressure Wind Wind Speed Wind Gust Humidity Daily Rainfall
00:05 61.4 °F /  16.3 °C 59.4 °F /  15.2 °C 29.86in /  1011.1hPa Calm     93% 0.00in /  0mm
00:10 61.2 °F /  16.2 °C 59.2 °F /  15.1 °C 29.86in /  1011.1hPa Calm     93% 0.00in /  0mm
00:14 61.2 °F /  16.2 °C 59.2 °F /  15.1 °C 29.86in /  1011.1hPa Calm     93% 0.00in /  0mm
00:20 61.3 °F /  16.3 °C 59.6 °F /  15.3 °C 29.85in /  1010.7hPa Calm     94% 0.00in /  0mm
00:25 61.3 °F /  16.3 °C 59.6 °F /  15.3 °C 29.85in /  1010.7hPa Calm     94% 0.00in /  0mm
00:29 61.4 °F /  16.3 °C 59.7 °F /  15.4 °C 29.85in /  1010.7hPa Calm     94% 0.00in /  0mm
00:35 61.4 °F /  16.3 °C 59.7 °F /  15.4 °C 29.85in /  1010.7hPa Calm     94% 0.00in /  0mm
00:40 61.4 °F /  16.3 °C 59.7 °F /  15.4 °C 29.85in /  1010.7hPa Calm     94% 0.00in /  0mm
00:45 61.4 °F /  16.3 °C 59.7 °F /  15.4 °C 29.85in /  1010.7hPa Calm     94% 0.00in /  0mm
00:49 61.4 °F /  16.3 °C 59.7 °F /  15.4 °C 29.85in /  1010.7hPa Calm     94% 0.00in /  0mm
00:54 61.4 °F /  16.3 °C 59.7 °F /  15.4 °C 29.85in /  1010.7hPa Calm     94% 0.00in /  0mm
01:00 61.4 °F /  16.3 °C 59.7 °F /  15.4 °C 29.85in /  1010.7hPa Calm     94% 0.00in /  0mm
01:05 61.3 °F /  16.3 °C 59.6 °F /  15.3 °C 29.85in /  1010.7hPa Calm     94% 0.00in /  0mm
01:09 61.2 °F /  16.2 °C 59.5 °F /  15.3 °C 29.85in /  1010.7hPa Calm     94% 0.00in /  0mm
01:14 61.1 °F /  16.2 °C 59.7 °F /  15.4 °C 29.85in /  1010.7hPa Calm     95% 0.00in /  0mm
01:20 61.0 °F /  16.1 °C 59.6 °F /  15.3 °C 29.84in /  1010.4hPa Calm     95% 0.00in /  0mm
01:24 60.9 °F /  16.1 °C 59.5 °F /  15.3 °C 29.84in /  1010.4hPa Calm     95% 0.00in /  0mm
01:29 60.9 °F /  16.1 °C 59.5 °F /  15.3 °C 29.84in /  1010.4hPa Calm     95% 0.00in /  0mm
01:35 60.9 °F /  16.1 °C 59.5 °F /  15.3 °C 29.84in /  1010.4hPa Calm     95% 0.00in /  0mm
01:39 60.9 °F /  16.1 °C 59.5 °F /  15.3 °C 29.84in /  1010.4hPa Calm     95% 0.00in /  0mm
01:44 61.1 °F /  16.2 °C 59.7 °F /  15.4 °C 29.84in /  1010.4hPa Calm     95% 0.00in /  0mm
01:50 61.1 °F /  16.2 °C 59.7 °F /  15.4 °C 29.84in /  1010.4hPa Calm     95% 0.00in /  0mm
01:55 61.0 °F /  16.1 °C 59.6 °F /  15.3 °C 29.84in /  1010.4hPa Calm     95% 0.00in /  0mm
01:59 61.1 °F /  16.2 °C 59.7 °F /  15.4 °C 29.84in /  1010.4hPa Calm     95% 0.00in /  0mm
02:05 60.9 °F /  16.1 °C 59.5 °F /  15.3 °C 29.84in /  1010.4hPa Calm     95% 0.00in /  0mm
02:09 60.9 °F /  16.1 °C 59.5 °F /  15.3 °C 29.84in /  1010.4hPa Calm     95% 0.00in /  0mm
02:15 60.9 °F /  16.1 °C 59.8 °F /  15.4 °C 29.84in /  1010.4hPa Calm     96% 0.00in /  0mm
02:20 61.1 °F /  16.2 °C 60.0 °F /  15.6 °C 29.84in /  1010.4hPa Calm     96% 0.00in /  0mm
02:24 61.2 °F /  16.2 °C 60.1 °F /  15.6 °C 29.84in /  1010.4hPa Calm     96% 0.00in /  0mm
02:29 61.3 °F /  16.3 °C 60.2 °F /  15.7 °C 29.84in /  1010.4hPa Calm     96% 0.00in /  0mm
02:35 61.4 °F /  16.3 °C 60.2 °F /  15.7 °C 29.84in /  1010.4hPa Calm     96% 0.00in /  0mm
02:39 61.4 °F /  16.3 °C 60.2 °F /  15.7 °C 29.84in /  1010.4hPa Calm     96% 0.00in /  0mm
02:45 61.4 °F /  16.3 °C 60.2 °F /  15.7 °C 29.84in /  1010.4hPa Calm     96% 0.00in /  0mm
02:50 61.3 °F /  16.3 °C 60.2 °F /  15.7 °C 29.84in /  1010.4hPa Calm     96% 0.00in /  0mm
02:54 61.1 °F /  16.2 °C 60.0 °F /  15.6 °C 29.84in /  1010.4hPa Calm     96% 0.00in /  0mm
02:59 60.9 °F /  16.1 °C 59.8 °F /  15.4 °C 29.84in /  1010.4hPa Calm     96% 0.00in /  0mm
03:05 60.8 °F /  16 °C 59.7 °F /  15.4 °C 29.84in /  1010.4hPa Calm     96% 0.00in /  0mm
03:09 60.7 °F /  15.9 °C 59.6 °F /  15.3 °C 29.83in /  1010hPa Calm     96% 0.00in /  0mm
03:15 60.6 °F /  15.9 °C 59.5 °F /  15.3 °C 29.83in /  1010hPa Calm     96% 0.00in /  0mm
03:20 60.5 °F /  15.8 °C 59.4 °F /  15.2 °C 29.83in /  1010hPa Calm     96% 0.00in /  0mm
03:25 60.6 °F /  15.9 °C 59.5 °F /  15.3 °C 29.84in /  1010.4hPa Calm     96% 0.00in /  0mm
03:29 60.7 °F /  15.9 °C 59.6 °F /  15.3 °C 29.84in /  1010.4hPa Calm     96% 0.00in /  0mm
03:35 60.9 °F /  16.1 °C 59.8 °F /  15.4 °C 29.84in /  1010.4hPa Calm     96% 0.00in /  0mm
03:40 61.1 °F /  16.2 °C 60.0 °F /  15.6 °C 29.84in /  1010.4hPa Calm     96% 0.00in /  0mm
03:49 61.5 °F /  16.4 °C 60.3 °F /  15.7 °C 29.84in /  1010.4hPa Calm     96% 0.00in /  0mm
03:55 61.5 °F /  16.4 °C 60.3 °F /  15.7 °C 29.83in /  1010hPa Calm     96% 0.00in /  0mm
04:05 61.6 °F /  16.4 °C 60.4 °F /  15.8 °C 29.84in /  1010.4hPa Calm     96% 0.00in /  0mm
04:09 61.4 °F /  16.3 °C 60.2 °F /  15.7 °C 29.84in /  1010.4hPa Calm     96% 0.00in /  0mm
04:15 61.2 °F /  16.2 °C 60.1 °F /  15.6 °C 29.84in /  1010.4hPa Calm     96% 0.00in /  0mm
04:19 61.0 °F /  16.1 °C 59.9 °F /  15.5 °C 29.84in /  1010.4hPa Calm     96% 0.00in /  0mm
04:25 61.1 °F /  16.2 °C 60.0 °F /  15.6 °C 29.84in /  1010.4hPa Calm     96% 0.00in /  0mm
04:29 60.9 °F /  16.1 °C 59.8 °F /  15.4 °C 29.84in /  1010.4hPa Calm     96% 0.00in /  0mm
04:35 60.9 °F /  16.1 °C 59.8 °F /  15.4 °C 29.84in /  1010.4hPa Calm     96% 0.00in /  0mm
04:39 60.7 °F /  15.9 °C 59.6 °F /  15.3 °C 29.84in /  1010.4hPa Calm     96% 0.00in /  0mm
04:45 60.4 °F /  15.8 °C 59.3 °F /  15.2 °C 29.84in /  1010.4hPa Calm     96% 0.00in /  0mm
04:50 60.1 °F /  15.6 °C 59.0 °F /  15 °C 29.83in /  1010hPa Calm     96% 0.00in /  0mm
04:54 59.8 °F /  15.4 °C 58.7 °F /  14.8 °C 29.84in /  1010.4hPa Calm     96% 0.00in /  0mm
04:59 60.0 °F /  15.6 °C 58.9 °F /  14.9 °C 29.84in /  1010.4hPa Calm     96% 0.00in /  0mm
05:05 60.0 °F /  15.6 °C 58.9 °F /  14.9 °C 29.84in /  1010.4hPa Calm     96% 0.00in /  0mm
05:14 59.9 °F /  15.5 °C 58.8 °F /  14.9 °C 29.85in /  1010.7hPa Calm     96% 0.00in /  0mm
05:20 59.9 °F /  15.5 °C 58.8 °F /  14.9 °C 29.85in /  1010.7hPa Calm     96% 0.00in /  0mm
05:29 60.0 °F /  15.6 °C 58.9 °F /  14.9 °C 29.86in /  1011.1hPa Calm     96% 0.00in /  0mm
05:34 59.9 °F /  15.5 °C 58.8 °F /  14.9 °C 29.86in /  1011.1hPa Calm     96% 0.00in /  0mm
05:40 59.9 °F /  15.5 °C 58.8 °F /  14.9 °C 29.86in /  1011.1hPa Calm     96% 0.00in /  0mm
05:44 60.0 °F /  15.6 °C 58.9 °F /  14.9 °C 29.86in /  1011.1hPa Calm     96% 0.00in /  0mm
05:49 60.0 °F /  15.6 °C 58.9 °F /  14.9 °C 29.86in /  1011.1hPa Calm     96% 0.00in /  0mm
05:55 59.9 °F /  15.5 °C 58.8 °F /  14.9 °C 29.86in /  1011.1hPa Calm     96% 0.00in /  0mm
05:59 59.7 °F /  15.4 °C 58.6 °F /  14.8 °C 29.86in /  1011.1hPa Calm     96% 0.00in /  0mm
06:04 59.3 °F /  15.2 °C 58.2 °F /  14.6 °C 29.86in /  1011.1hPa Calm     96% 0.00in /  0mm
06:10 59.0 °F /  15 °C 57.9 °F /  14.4 °C 29.86in /  1011.1hPa Calm     96% 0.00in /  0mm
06:15 59.0 °F /  15 °C 57.9 °F /  14.4 °C 29.86in /  1011.1hPa Calm     96% 0.00in /  0mm
06:19 59.0 °F /  15 °C 57.9 °F /  14.4 °C 29.86in /  1011.1hPa Calm     96% 0.00in /  0mm
06:24 58.8 °F /  14.9 °C 57.7 °F /  14.3 °C 29.86in /  1011.1hPa Calm     96% 0.00in /  0mm
06:30 58.8 °F /  14.9 °C 57.7 °F /  14.3 °C 29.86in /  1011.1hPa Calm     96% 0.00in /  0mm
06:34 58.7 °F /  14.8 °C 57.6 °F /  14.2 °C 29.86in /  1011.1hPa Calm     96% 0.00in /  0mm
06:39 58.6 °F /  14.8 °C 57.5 °F /  14.2 °C 29.87in /  1011.4hPa Calm     96% 0.00in /  0mm
06:44 58.5 °F /  14.7 °C 57.4 °F /  14.1 °C 29.87in /  1011.4hPa Calm     96% 0.00in /  0mm
06:50 58.6 °F /  14.8 °C 57.5 °F /  14.2 °C 29.87in /  1011.4hPa Calm     96% 0.00in /  0mm
06:54 58.9 °F /  14.9 °C 57.8 °F /  14.3 °C 29.87in /  1011.4hPa Calm     96% 0.00in /  0mm
06:59 59.0 °F /  15 °C 57.9 °F /  14.4 °C 29.87in /  1011.4hPa Calm     96% 0.00in /  0mm
07:05 59.0 °F /  15 °C 57.9 °F /  14.4 °C 29.86in /  1011.1hPa Calm     96% 0.00in /  0mm
07:09 59.0 °F /  15 °C 57.9 °F /  14.4 °C 29.86in /  1011.1hPa Calm     96% 0.00in /  0mm
07:15 59.4 °F /  15.2 °C 58.3 °F /  14.6 °C 29.86in /  1011.1hPa Calm     96% 0.00in /  0mm
07:19 59.7 °F /  15.4 °C 58.6 °F /  14.8 °C 29.86in /  1011.1hPa Calm   1.0mph /  1.6km/h 96% 0.00in /  0mm
07:24 60.1 °F /  15.6 °C 59.0 °F /  15 °C 29.86in /  1011.1hPa Calm   1.0mph /  1.6km/h 96% 0.00in /  0mm
07:30 60.5 °F /  15.8 °C 59.4 °F /  15.2 °C 29.86in /  1011.1hPa Calm     96% 0.00in /  0mm
07:34 60.9 °F /  16.1 °C 59.8 °F /  15.4 °C 29.85in /  1010.7hPa Calm     96% 0.00in /  0mm
07:40 61.5 °F /  16.4 °C 60.6 °F /  15.9 °C 29.85in /  1010.7hPa Calm     97% 0.00in /  0mm
07:44 61.8 °F /  16.6 °C 60.9 °F /  16.1 °C 29.85in /  1010.7hPa Calm     97% 0.00in /  0mm
07:50 62.1 °F /  16.7 °C 61.2 °F /  16.2 °C 29.86in /  1011.1hPa Calm     97% 0.00in /  0mm
07:54 62.4 °F /  16.9 °C 61.5 °F /  16.4 °C 29.86in /  1011.1hPa Calm     97% 0.00in /  0mm
07:59 62.6 °F /  17 °C 61.7 °F /  16.5 °C 29.86in /  1011.1hPa Calm     97% 0.00in /  0mm
08:04 62.8 °F /  17.1 °C 61.9 °F /  16.6 °C 29.86in /  1011.1hPa Calm     97% 0.00in /  0mm
08:10 62.9 °F /  17.2 °C 62.0 °F /  16.7 °C 29.85in /  1010.7hPa Calm     97% 0.00in /  0mm
08:14 62.8 °F /  17.1 °C 61.9 °F /  16.6 °C 29.85in /  1010.7hPa Calm   2.0mph /  3.2km/h 97% 0.00in /  0mm
08:19 63.1 °F /  17.3 °C 62.2 °F /  16.8 °C 29.86in /  1011.1hPa Calm   2.0mph /  3.2km/h 97% 0.00in /  0mm
08:25 63.1 °F /  17.3 °C 62.2 °F /  16.8 °C 29.85in /  1010.7hPa Calm     97% 0.00in /  0mm
08:29 63.4 °F /  17.4 °C 62.5 °F /  16.9 °C 29.86in /  1011.1hPa Calm     97% 0.00in /  0mm
08:35 64.0 °F /  17.8 °C 63.1 °F /  17.3 °C 29.86in /  1011.1hPa Calm     97% 0.00in /  0mm
08:44 64.6 °F /  18.1 °C 63.7 °F /  17.6 °C 29.86in /  1011.1hPa Calm     97% 0.00in /  0mm
08:49 64.2 °F /  17.9 °C 63.0 °F /  17.2 °C 29.86in /  1011.1hPa Calm     96% 0.00in /  0mm
08:54 64.4 °F /  18 °C 63.5 °F /  17.5 °C 29.86in /  1011.1hPa Calm     97% 0.00in /  0mm
08:59 64.5 °F /  18.1 °C 63.6 °F /  17.6 °C 29.86in /  1011.1hPa Calm     97% 0.00in /  0mm
09:04 64.6 °F /  18.1 °C 63.7 °F /  17.6 °C 29.86in /  1011.1hPa Calm     97% 0.00in /  0mm
09:09 64.8 °F /  18.2 °C 63.6 °F /  17.6 °C 29.85in /  1010.7hPa Calm   1.0mph /  1.6km/h 96% 0.00in /  0mm
09:14 65.0 °F /  18.3 °C 63.8 °F /  17.7 °C 29.85in /  1010.7hPa Calm   1.0mph /  1.6km/h 96% 0.00in /  0mm
09:19 65.4 °F /  18.6 °C 64.2 °F /  17.9 °C 29.85in /  1010.7hPa Calm     96% 0.00in /  0mm
09:25 65.6 °F /  18.7 °C 64.4 °F /  18 °C 29.86in /  1011.1hPa Calm     96% 0.00in /  0mm
09:29 65.7 °F /  18.7 °C 64.2 °F /  17.9 °C 29.86in /  1011.1hPa WNW 2.0mph /  3.2km/h 4.0mph /  6.4km/h 95% 0.00in /  0mm
09:34 65.8 °F /  18.8 °C 63.7 °F /  17.6 °C 29.86in /  1011.1hPa Calm   5.0mph /  8km/h 93% 0.00in /  0mm
09:39 66.3 °F /  19.1 °C 63.6 °F /  17.6 °C 29.85in /  1010.7hPa Calm   5.0mph /  8km/h 91% 0.00in /  0mm
09:44 66.8 °F /  19.3 °C 63.8 °F /  17.7 °C 29.86in /  1011.1hPa Calm     90% 0.00in /  0mm
09:49 67.4 °F /  19.7 °C 64.0 °F /  17.8 °C 29.86in /  1011.1hPa Calm     89% 0.00in /  0mm
09:54 68.4 °F /  20.2 °C 64.4 °F /  18 °C 29.85in /  1010.7hPa WNW 2.0mph /  3.2km/h 5.0mph /  8km/h 87% 0.00in /  0mm
09:59 69.0 °F /  20.6 °C 63.6 °F /  17.6 °C 29.85in /  1010.7hPa Calm   5.0mph /  8km/h 83% 0.00in /  0mm
10:04 69.2 °F /  20.7 °C 63.1 °F /  17.3 °C 29.85in /  1010.7hPa Calm   5.0mph /  8km/h 81% 0.00in /  0mm
10:09 69.6 °F /  20.9 °C 63.2 °F /  17.3 °C 29.85in /  1010.7hPa WNW 1.0mph /  1.6km/h 5.0mph /  8km/h 80% 0.00in /  0mm
10:14 70.0 °F /  21.1 °C 63.2 °F /  17.3 °C 29.85in /  1010.7hPa Calm   6.0mph /  9.7km/h 79% 0.00in /  0mm
10:19 70.4 °F /  21.3 °C 63.6 °F /  17.6 °C 29.85in /  1010.7hPa NW 2.0mph /  3.2km/h 6.0mph /  9.7km/h 79% 0.00in /  0mm
10:24 71.1 °F /  21.7 °C 64.3 °F /  17.9 °C 29.85in /  1010.7hPa Calm   6.0mph /  9.7km/h 79% 0.00in /  0mm
10:29 71.3 °F /  21.8 °C 63.7 °F /  17.6 °C 29.85in /  1010.7hPa Calm   6.0mph /  9.7km/h 77% 0.00in /  0mm
10:34 71.3 °F /  21.8 °C 63.4 °F /  17.4 °C 29.85in /  1010.7hPa Calm   6.0mph /  9.7km/h 76% 0.00in /  0mm
10:39 71.1 °F /  21.7 °C 63.5 °F /  17.5 °C 29.85in /  1010.7hPa NW 1.0mph /  1.6km/h 6.0mph /  9.7km/h 77% 0.00in /  0mm
10:44 71.3 °F /  21.8 °C 64.1 °F /  17.8 °C 29.85in /  1010.7hPa WNW 2.0mph /  3.2km/h 6.0mph /  9.7km/h 78% 0.00in /  0mm
10:49 72.0 °F /  22.2 °C 64.0 °F /  17.8 °C 29.85in /  1010.7hPa NW 2.0mph /  3.2km/h 6.0mph /  9.7km/h 76% 0.00in /  0mm
10:54 72.3 °F /  22.4 °C 63.6 °F /  17.6 °C 29.85in /  1010.7hPa NNW 1.0mph /  1.6km/h 9.0mph /  14.5km/h 74% 0.00in /  0mm
10:59 72.9 °F /  22.7 °C 65.3 °F /  18.5 °C 29.85in /  1010.7hPa Calm   9.0mph /  14.5km/h 77% 0.00in /  0mm
11:04 73.3 °F /  22.9 °C 64.1 °F /  17.8 °C 29.85in /  1010.7hPa Calm   1.0mph /  1.6km/h 73% 0.00in /  0mm
11:09 72.7 °F /  22.6 °C 63.2 °F /  17.3 °C 29.85in /  1010.7hPa WNW 2.0mph /  3.2km/h 7.0mph /  11.3km/h 72% 0.00in /  0mm
11:14 72.2 °F /  22.3 °C 63.8 °F /  17.7 °C 29.85in /  1010.7hPa WNW 1.0mph /  1.6km/h 7.0mph /  11.3km/h 75% 0.00in /  0mm
11:19 72.6 °F /  22.6 °C 65.0 °F /  18.3 °C 29.85in /  1010.7hPa NNW 1.0mph /  1.6km/h 4.0mph /  6.4km/h 77% 0.00in /  0mm
11:24 73.1 °F /  22.8 °C 64.7 °F /  18.2 °C 29.85in /  1010.7hPa Calm   3.0mph /  4.8km/h 75% 0.00in /  0mm
11:29 73.4 °F /  23 °C 64.6 °F /  18.1 °C 29.85in /  1010.7hPa Calm   5.0mph /  8km/h 74% 0.00in /  0mm
11:34 74.2 °F /  23.4 °C 65.0 °F /  18.3 °C 29.85in /  1010.7hPa West 2.0mph /  3.2km/h 6.0mph /  9.7km/h 73% 0.00in /  0mm
11:39 74.5 °F /  23.6 °C 64.5 °F /  18.1 °C 29.84in /  1010.4hPa Calm   6.0mph /  9.7km/h 71% 0.00in /  0mm
11:44 74.3 °F /  23.5 °C 64.3 °F /  17.9 °C 29.84in /  1010.4hPa Calm   7.0mph /  11.3km/h 71% 0.00in /  0mm
11:49 74.0 °F /  23.3 °C 64.4 °F /  18 °C 29.84in /  1010.4hPa NW 1.0mph /  1.6km/h 7.0mph /  11.3km/h 72% 0.00in /  0mm
11:54 73.9 °F /  23.3 °C 65.1 °F /  18.4 °C 29.84in /  1010.4hPa Calm   7.0mph /  11.3km/h 74% 0.00in /  0mm
11:59 73.9 °F /  23.3 °C 63.9 °F /  17.7 °C 29.84in /  1010.4hPa NW 3.0mph /  4.8km/h 6.0mph /  9.7km/h 71% 0.00in /  0mm
12:04 73.4 °F /  23 °C 64.2 °F /  17.9 °C 29.84in /  1010.4hPa NW 1.0mph /  1.6km/h 6.0mph /  9.7km/h 73% 0.00in /  0mm
12:09 73.3 °F /  22.9 °C 64.5 °F /  18.1 °C 29.84in /  1010.4hPa NW 1.0mph /  1.6km/h 6.0mph /  9.7km/h 74% 0.00in /  0mm
12:14 74.2 °F /  23.4 °C 64.6 °F /  18.1 °C 29.84in /  1010.4hPa WNW 2.0mph /  3.2km/h 7.0mph /  11.3km/h 72% 0.00in /  0mm
12:19 75.3 °F /  24.1 °C 66.1 °F /  18.9 °C 29.84in /  1010.4hPa Calm   7.0mph /  11.3km/h 73% 0.00in /  0mm
12:24 75.1 °F /  23.9 °C 65.5 °F /  18.6 °C 29.83in /  1010hPa Calm   6.0mph /  9.7km/h 72% 0.00in /  0mm
12:29 74.5 °F /  23.6 °C 64.9 °F /  18.3 °C 29.83in /  1010hPa Calm   6.0mph /  9.7km/h 72% 0.00in /  0mm
12:34 74.0 °F /  23.3 °C 64.8 °F /  18.2 °C 29.83in /  1010hPa Calm   6.0mph /  9.7km/h 73% 0.00in /  0mm
12:39 73.8 °F /  23.2 °C 65.0 °F /  18.3 °C 29.83in /  1010hPa Calm   6.0mph /  9.7km/h 74% 0.00in /  0mm
12:44 74.2 °F /  23.4 °C 64.6 °F /  18.1 °C 29.83in /  1010hPa WNW 5.0mph /  8km/h 8.0mph /  12.9km/h 72% 0.00in /  0mm
12:49 75.1 °F /  23.9 °C 65.5 °F /  18.6 °C 29.83in /  1010hPa NE 1.0mph /  1.6km/h 8.0mph /  12.9km/h 72% 0.00in /  0mm
12:54 76.4 °F /  24.7 °C 66.7 °F /  19.3 °C 29.83in /  1010hPa Calm   6.0mph /  9.7km/h 72% 0.00in /  0mm
12:59 76.6 °F /  24.8 °C 65.7 °F /  18.7 °C 29.82in /  1009.7hPa ENE 3.0mph /  4.8km/h 5.0mph /  8km/h 69% 0.00in /  0mm
13:04 76.1 °F /  24.5 °C 64.4 °F /  18 °C 29.82in /  1009.7hPa ENE 1.0mph /  1.6km/h 5.0mph /  8km/h 67% 0.00in /  0mm
13:09 75.5 °F /  24.2 °C 63.4 °F /  17.4 °C 29.82in /  1009.7hPa NNE 3.0mph /  4.8km/h 7.0mph /  11.3km/h 66% 0.00in /  0mm
13:14 75.7 °F /  24.3 °C 64.8 °F /  18.2 °C 29.83in /  1010hPa NW 2.0mph /  3.2km/h 7.0mph /  11.3km/h 69% 0.00in /  0mm
13:19 76.1 °F /  24.5 °C 64.4 °F /  18 °C 29.83in /  1010hPa Calm   8.0mph /  12.9km/h 67% 0.00in /  0mm
13:24 76.8 °F /  24.9 °C 64.6 °F /  18.1 °C 29.83in /  1010hPa Calm   8.0mph /  12.9km/h 66% 0.00in /  0mm
13:29 77.4 °F /  25.2 °C 65.6 °F /  18.7 °C 29.83in /  1010hPa Calm   5.0mph /  8km/h 67% 0.00in /  0mm
13:34 77.3 °F /  25.2 °C 65.1 °F /  18.4 °C 29.83in /  1010hPa Calm   6.0mph /  9.7km/h 66% 0.00in /  0mm
13:39 77.3 °F /  25.2 °C 63.7 °F /  17.6 °C 29.83in /  1010hPa Calm   6.0mph /  9.7km/h 63% 0.00in /  0mm
13:44 77.2 °F /  25.1 °C 64.1 °F /  17.8 °C 29.83in /  1010hPa NNE 1.0mph /  1.6km/h 4.0mph /  6.4km/h 64% 0.00in /  0mm
13:49 77.3 °F /  25.2 °C 65.5 °F /  18.6 °C 29.83in /  1010hPa Calm   4.0mph /  6.4km/h 67% 0.00in /  0mm
13:54 77.5 °F /  25.3 °C 63.9 °F /  17.7 °C 29.83in /  1010hPa NNE 2.0mph /  3.2km/h 5.0mph /  8km/h 63% 0.00in /  0mm
13:59 77.3 °F /  25.2 °C 64.2 °F /  17.9 °C 29.83in /  1010hPa Calm   5.0mph /  8km/h 64% 0.00in /  0mm
14:04 77.8 °F /  25.4 °C 64.7 °F /  18.2 °C 29.82in /  1009.7hPa NW 1.0mph /  1.6km/h 6.0mph /  9.7km/h 64% 0.00in /  0mm
14:09 78.1 °F /  25.6 °C 64.0 °F /  17.8 °C 29.83in /  1010hPa WNW 5.0mph /  8km/h 11.0mph /  17.7km/h 62% 0.00in /  0mm
14:14 78.2 °F /  25.7 °C 64.1 °F /  17.8 °C 29.82in /  1009.7hPa NNE 1.0mph /  1.6km/h 11.0mph /  17.7km/h 62% 0.00in /  0mm
14:19 78.7 °F /  25.9 °C 64.6 °F /  18.1 °C 29.82in /  1009.7hPa NW 3.0mph /  4.8km/h 6.0mph /  9.7km/h 62% 0.00in /  0mm
14:24 78.7 °F /  25.9 °C 64.6 °F /  18.1 °C 29.82in /  1009.7hPa WNW 3.0mph /  4.8km/h 8.0mph /  12.9km/h 62% 0.00in /  0mm
14:29 79.1 °F /  26.2 °C 65.0 °F /  18.3 °C 29.82in /  1009.7hPa Calm   8.0mph /  12.9km/h 62% 0.00in /  0mm
14:34 79.4 °F /  26.3 °C 63.8 °F /  17.7 °C 29.82in /  1009.7hPa NW 2.0mph /  3.2km/h 8.0mph /  12.9km/h 59% 0.00in /  0mm
14:39 79.5 °F /  26.4 °C 62.5 °F /  16.9 °C 29.82in /  1009.7hPa ENE 1.0mph /  1.6km/h 8.0mph /  12.9km/h 56% 0.00in /  0mm
14:44 79.0 °F /  26.1 °C 63.5 °F /  17.5 °C 29.82in /  1009.7hPa NW 1.0mph /  1.6km/h 6.0mph /  9.7km/h 59% 0.00in /  0mm
14:49 79.0 °F /  26.1 °C 63.5 °F /  17.5 °C 29.82in /  1009.7hPa NNE 1.0mph /  1.6km/h 7.0mph /  11.3km/h 59% 0.00in /  0mm
14:54 78.7 °F /  25.9 °C 61.2 °F /  16.2 °C 29.82in /  1009.7hPa North 1.0mph /  1.6km/h 7.0mph /  11.3km/h 55% 0.00in /  0mm
14:59 78.7 °F /  25.9 °C 64.1 °F /  17.8 °C 29.82in /  1009.7hPa NNW 1.0mph /  1.6km/h 7.0mph /  11.3km/h 61% 0.00in /  0mm
15:04 79.0 °F /  26.1 °C 63.5 °F /  17.5 °C 29.82in /  1009.7hPa NNW 1.0mph /  1.6km/h 8.0mph /  12.9km/h 59% 0.00in /  0mm
15:09 79.1 °F /  26.2 °C 63.1 °F /  17.3 °C 29.82in /  1009.7hPa Calm   8.0mph /  12.9km/h 58% 0.00in /  0mm
15:14 79.5 °F /  26.4 °C 63.4 °F /  17.4 °C 29.82in /  1009.7hPa NNE 1.0mph /  1.6km/h 7.0mph /  11.3km/h 58% 0.00in /  0mm
15:19 79.8 °F /  26.6 °C 63.2 °F /  17.3 °C 29.82in /  1009.7hPa Calm   7.0mph /  11.3km/h 57% 0.00in /  0mm
15:24 80.0 °F /  26.7 °C 63.9 °F /  17.7 °C 29.82in /  1009.7hPa NE 1.0mph /  1.6km/h 7.0mph /  11.3km/h 58% 0.00in /  0mm
15:29 79.8 °F /  26.6 °C 62.7 °F /  17.1 °C 29.82in /  1009.7hPa NW 3.0mph /  4.8km/h 7.0mph /  11.3km/h 56% 0.00in /  0mm
15:34 79.7 °F /  26.5 °C 63.1 °F /  17.3 °C 29.82in /  1009.7hPa Calm   7.0mph /  11.3km/h 57% 0.00in /  0mm
15:39 79.2 °F /  26.2 °C 64.1 °F /  17.8 °C 29.82in /  1009.7hPa NW 1.0mph /  1.6km/h 10.0mph /  16.1km/h 60% 0.00in /  0mm
15:44 79.3 °F /  26.3 °C 62.3 °F /  16.8 °C 29.82in /  1009.7hPa WNW 1.0mph /  1.6km/h 10.0mph /  16.1km/h 56% 0.00in /  0mm
15:49 79.5 °F /  26.4 °C 63.4 °F /  17.4 °C 29.82in /  1009.7hPa NNW 2.0mph /  3.2km/h 6.0mph /  9.7km/h 58% 0.00in /  0mm
15:54 79.7 °F /  26.5 °C 63.6 °F /  17.6 °C 29.82in /  1009.7hPa WNW 1.0mph /  1.6km/h 7.0mph /  11.3km/h 58% 0.00in /  0mm
15:59 80.0 °F /  26.7 °C 64.4 °F /  18 °C 29.81in /  1009.4hPa Calm   8.0mph /  12.9km/h 59% 0.00in /  0mm
16:04 80.1 °F /  26.7 °C 64.5 °F /  18.1 °C 29.81in /  1009.4hPa North 2.0mph /  3.2km/h 8.0mph /  12.9km/h 59% 0.00in /  0mm
16:09 79.7 °F /  26.5 °C 62.6 °F /  17 °C 29.81in /  1009.4hPa NNE 1.0mph /  1.6km/h 8.0mph /  12.9km/h 56% 0.00in /  0mm
16:14 79.4 °F /  26.3 °C 63.4 °F /  17.4 °C 29.81in /  1009.4hPa NW 1.0mph /  1.6km/h 8.0mph /  12.9km/h 58% 0.00in /  0mm
16:19 79.2 °F /  26.2 °C 63.2 °F /  17.3 °C 29.81in /  1009.4hPa NW 2.0mph /  3.2km/h 8.0mph /  12.9km/h 58% 0.00in /  0mm
16:24 78.8 °F /  26 °C 63.8 °F /  17.7 °C 29.81in /  1009.4hPa NW 2.0mph /  3.2km/h 7.0mph /  11.3km/h 60% 0.00in /  0mm
16:29 78.7 °F /  25.9 °C 63.7 °F /  17.6 °C 29.80in /  1009hPa WNW 4.0mph /  6.4km/h 7.0mph /  11.3km/h 60% 0.00in /  0mm
16:34 78.6 °F /  25.9 °C 63.1 °F /  17.3 °C 29.80in /  1009hPa Calm   10.0mph /  16.1km/h 59% 0.00in /  0mm
16:39 78.7 °F /  25.9 °C 62.7 °F /  17.1 °C 29.79in /  1008.7hPa Calm   10.0mph /  16.1km/h 58% 0.00in /  0mm
16:44 78.9 °F /  26.1 °C 62.9 °F /  17.2 °C 29.79in /  1008.7hPa Calm   7.0mph /  11.3km/h 58% 0.00in /  0mm
16:49 78.9 °F /  26.1 °C 63.4 °F /  17.4 °C 29.79in /  1008.7hPa Calm   5.0mph /  8km/h 59% 0.00in /  0mm
16:54 78.7 °F /  25.9 °C 62.7 °F /  17.1 °C 29.79in /  1008.7hPa NNE 2.0mph /  3.2km/h 7.0mph /  11.3km/h 58% 0.00in /  0mm
16:59 78.5 °F /  25.8 °C 63.5 °F /  17.5 °C 29.79in /  1008.7hPa NE 2.0mph /  3.2km/h 10.0mph /  16.1km/h 60% 0.00in /  0mm
17:04 78.8 °F /  26 °C 62.8 °F /  17.1 °C 29.79in /  1008.7hPa Calm   10.0mph /  16.1km/h 58% 0.00in /  0mm
17:09 78.7 °F /  25.9 °C 62.2 °F /  16.8 °C 29.79in /  1008.7hPa Calm   5.0mph /  8km/h 57% 0.00in /  0mm
17:14 78.3 °F /  25.7 °C 63.3 °F /  17.4 °C 29.79in /  1008.7hPa NW 1.0mph /  1.6km/h 10.0mph /  16.1km/h 60% 0.00in /  0mm
17:19 78.1 °F /  25.6 °C 62.1 °F /  16.7 °C 29.79in /  1008.7hPa NNE 2.0mph /  3.2km/h 10.0mph /  16.1km/h 58% 0.00in /  0mm
17:24 78.0 °F /  25.6 °C 63.5 °F /  17.5 °C 29.79in /  1008.7hPa NE 1.0mph /  1.6km/h 5.0mph /  8km/h 61% 0.00in /  0mm
17:29 78.1 °F /  25.6 °C 64.0 °F /  17.8 °C 29.79in /  1008.7hPa Calm   5.0mph /  8km/h 62% 0.00in /  0mm
17:34 77.9 °F /  25.5 °C 62.4 °F /  16.9 °C 29.79in /  1008.7hPa NNE 1.0mph /  1.6km/h 6.0mph /  9.7km/h 59% 0.00in /  0mm
17:39 77.9 °F /  25.5 °C 63.8 °F /  17.7 °C 29.79in /  1008.7hPa Calm   6.0mph /  9.7km/h 62% 0.00in /  0mm
17:44 78.0 °F /  25.6 °C 63.5 °F /  17.5 °C 29.79in /  1008.7hPa NE 1.0mph /  1.6km/h 4.0mph /  6.4km/h 61% 0.00in /  0mm
17:49 77.8 °F /  25.4 °C 63.3 °F /  17.4 °C 29.79in /  1008.7hPa WNW 1.0mph /  1.6km/h 7.0mph /  11.3km/h 61% 0.00in /  0mm
17:54 77.8 °F /  25.4 °C 63.8 °F /  17.7 °C 29.79in /  1008.7hPa Calm   7.0mph /  11.3km/h 62% 0.00in /  0mm
17:59 77.9 °F /  25.5 °C 63.4 °F /  17.4 °C 29.78in /  1008.4hPa Calm   4.0mph /  6.4km/h 61% 0.00in /  0mm
18:04 77.9 °F /  25.5 °C 63.8 °F /  17.7 °C 29.78in /  1008.4hPa Calm   3.0mph /  4.8km/h 62% 0.00in /  0mm
18:09 77.4 °F /  25.2 °C 62.0 °F /  16.7 °C 29.79in /  1008.7hPa Calm   7.0mph /  11.3km/h 59% 0.00in /  0mm
18:14 77.2 °F /  25.1 °C 63.6 °F /  17.6 °C 29.78in /  1008.4hPa Calm   7.0mph /  11.3km/h 63% 0.00in /  0mm
18:19 77.1 °F /  25.1 °C 62.6 °F /  17 °C 29.78in /  1008.4hPa Calm   3.0mph /  4.8km/h 61% 0.00in /  0mm
18:24 76.7 °F /  24.8 °C 63.2 °F /  17.3 °C 29.78in /  1008.4hPa Calm   1.0mph /  1.6km/h 63% 0.00in /  0mm
18:29 76.5 °F /  24.7 °C 63.0 °F /  17.2 °C 29.78in /  1008.4hPa Calm   1.0mph /  1.6km/h 63% 0.00in /  0mm
18:34 76.3 °F /  24.6 °C 63.2 °F /  17.3 °C 29.78in /  1008.4hPa Calm   3.0mph /  4.8km/h 64% 0.00in /  0mm
18:39 76.1 °F /  24.5 °C 63.5 °F /  17.5 °C 29.78in /  1008.4hPa Calm   3.0mph /  4.8km/h 65% 0.00in /  0mm
18:44 75.6 °F /  24.2 °C 62.6 °F /  17 °C 29.78in /  1008.4hPa Calm     64% 0.00in /  0mm
18:49 75.2 °F /  24 °C 63.1 °F /  17.3 °C 29.78in /  1008.4hPa Calm     66% 0.00in /  0mm
18:54 75.0 °F /  23.9 °C 62.5 °F /  16.9 °C 29.78in /  1008.4hPa Calm   1.0mph /  1.6km/h 65% 0.00in /  0mm
18:59 74.6 °F /  23.7 °C 62.1 °F /  16.7 °C 29.78in /  1008.4hPa North 1.0mph /  1.6km/h 3.0mph /  4.8km/h 65% 0.00in /  0mm
19:04 74.4 °F /  23.6 °C 62.3 °F /  16.8 °C 29.78in /  1008.4hPa Calm   3.0mph /  4.8km/h 66% 0.00in /  0mm
19:09 73.9 °F /  23.3 °C 61.8 °F /  16.6 °C 29.78in /  1008.4hPa Calm   2.0mph /  3.2km/h 66% 0.00in /  0mm
19:14 73.5 °F /  23.1 °C 62.3 °F /  16.8 °C 29.78in /  1008.4hPa Calm   3.0mph /  4.8km/h 68% 0.00in /  0mm
19:19 73.1 °F /  22.8 °C 62.3 °F /  16.8 °C 29.78in /  1008.4hPa Calm   3.0mph /  4.8km/h 69% 0.00in /  0mm
19:25 72.6 °F /  22.6 °C 62.7 °F /  17.1 °C 29.78in /  1008.4hPa Calm     71% 0.00in /  0mm
19:34 70.7 °F /  21.5 °C 61.6 °F /  16.4 °C 29.78in /  1008.4hPa Calm     73% 0.00in /  0mm
19:39 69.7 °F /  20.9 °C 61.4 °F /  16.3 °C 29.78in /  1008.4hPa Calm     75% 0.00in /  0mm
19:44 68.7 °F /  20.4 °C 60.5 °F /  15.8 °C 29.78in /  1008.4hPa Calm     75% 0.00in /  0mm
19:49 67.6 °F /  19.8 °C 60.1 °F /  15.6 °C 29.78in /  1008.4hPa Calm     77% 0.00in /  0mm
19:54 66.7 °F /  19.3 °C 60.0 °F /  15.6 °C 29.78in /  1008.4hPa Calm     79% 0.00in /  0mm
19:59 65.8 °F /  18.8 °C 59.1 °F /  15.1 °C 29.79in /  1008.7hPa Calm     79% 0.00in /  0mm
20:04 65.0 °F /  18.3 °C 58.7 °F /  14.8 °C 29.79in /  1008.7hPa Calm     80% 0.00in /  0mm
20:09 64.2 °F /  17.9 °C 58.6 °F /  14.8 °C 29.79in /  1008.7hPa Calm     82% 0.00in /  0mm
20:14 63.5 °F /  17.5 °C 58.2 °F /  14.6 °C 29.79in /  1008.7hPa Calm     83% 0.00in /  0mm
20:19 62.9 °F /  17.2 °C 57.7 °F /  14.3 °C 29.79in /  1008.7hPa Calm     83% 0.00in /  0mm
20:24 62.4 °F /  16.9 °C 57.5 °F /  14.2 °C 29.79in /  1008.7hPa Calm     84% 0.00in /  0mm
20:29 62.1 °F /  16.7 °C 57.5 °F /  14.2 °C 29.79in /  1008.7hPa Calm     85% 0.00in /  0mm
20:34 61.9 °F /  16.6 °C 57.7 °F /  14.3 °C 29.79in /  1008.7hPa Calm     86% 0.00in /  0mm
20:39 61.6 °F /  16.4 °C 57.4 °F /  14.1 °C 29.80in /  1009hPa Calm     86% 0.00in /  0mm
20:44 61.4 °F /  16.3 °C 57.5 °F /  14.2 °C 29.80in /  1009hPa Calm     87% 0.00in /  0mm
20:49 61.2 °F /  16.2 °C 57.3 °F /  14.1 °C 29.80in /  1009hPa Calm     87% 0.00in /  0mm
20:54 61.0 °F /  16.1 °C 57.4 °F /  14.1 °C 29.79in /  1008.7hPa Calm     88% 0.00in /  0mm
20:59 60.8 °F /  16 °C 57.2 °F /  14 °C 29.80in /  1009hPa Calm     88% 0.00in /  0mm
21:04 60.5 °F /  15.8 °C 56.9 °F /  13.8 °C 29.80in /  1009hPa Calm     88% 0.00in /  0mm
21:09 60.3 °F /  15.7 °C 56.7 °F /  13.7 °C 29.80in /  1009hPa Calm     88% 0.00in /  0mm
21:15 60.3 °F /  15.7 °C 57.0 °F /  13.9 °C 29.79in /  1008.7hPa Calm     89% 0.00in /  0mm
21:24 59.8 °F /  15.4 °C 56.6 °F /  13.7 °C 29.79in /  1008.7hPa Calm     89% 0.00in /  0mm
21:30 59.7 °F /  15.4 °C 56.8 °F /  13.8 °C 29.79in /  1008.7hPa Calm     90% 0.00in /  0mm
21:34 59.5 °F /  15.3 °C 56.6 °F /  13.7 °C 29.79in /  1008.7hPa Calm     90% 0.00in /  0mm
21:39 59.5 °F /  15.3 °C 56.6 °F /  13.7 °C 29.80in /  1009hPa Calm     90% 0.00in /  0mm
21:44 59.5 °F /  15.3 °C 56.6 °F /  13.7 °C 29.79in /  1008.7hPa Calm     90% 0.00in /  0mm
21:49 59.4 °F /  15.2 °C 56.8 °F /  13.8 °C 29.79in /  1008.7hPa Calm     91% 0.00in /  0mm
21:54 59.4 °F /  15.2 °C 56.8 °F /  13.8 °C 29.79in /  1008.7hPa Calm     91% 0.00in /  0mm
21:59 59.7 °F /  15.4 °C 57.4 °F /  14.1 °C 29.79in /  1008.7hPa Calm     92% 0.00in /  0mm
22:04 60.2 °F /  15.7 °C 58.2 °F /  14.6 °C 29.79in /  1008.7hPa Calm     93% 0.00in /  0mm
22:09 60.4 °F /  15.8 °C 58.4 °F /  14.7 °C 29.79in /  1008.7hPa Calm     93% 0.00in /  0mm
22:14 60.3 °F /  15.7 °C 58.3 °F /  14.6 °C 29.79in /  1008.7hPa Calm     93% 0.00in /  0mm
22:19 60.3 °F /  15.7 °C 58.3 °F /  14.6 °C 29.79in /  1008.7hPa Calm     93% 0.00in /  0mm
22:24 60.1 °F /  15.6 °C 58.1 °F /  14.5 °C 29.79in /  1008.7hPa Calm     93% 0.00in /  0mm
22:29 60.0 °F /  15.6 °C 58.0 °F /  14.4 °C 29.79in /  1008.7hPa Calm     93% 0.00in /  0mm
22:34 59.9 °F /  15.5 °C 57.9 °F /  14.4 °C 29.79in /  1008.7hPa Calm     93% 0.00in /  0mm
22:39 59.9 °F /  15.5 °C 57.9 °F /  14.4 °C 29.79in /  1008.7hPa Calm     93% 0.00in /  0mm
22:44 59.8 °F /  15.4 °C 57.8 °F /  14.3 °C 29.79in /  1008.7hPa Calm     93% 0.00in /  0mm
22:49 59.7 °F /  15.4 °C 57.7 °F /  14.3 °C 29.79in /  1008.7hPa Calm     93% 0.00in /  0mm
22:54 59.6 °F /  15.3 °C 57.6 °F /  14.2 °C 29.79in /  1008.7hPa Calm     93% 0.00in /  0mm
22:59 59.6 °F /  15.3 °C 57.6 °F /  14.2 °C 29.79in /  1008.7hPa Calm     93% 0.00in /  0mm
23:04 59.8 °F /  15.4 °C 57.8 °F /  14.3 °C 29.79in /  1008.7hPa Calm     93% 0.00in /  0mm
23:09 59.9 °F /  15.5 °C 58.2 °F /  14.6 °C 29.79in /  1008.7hPa Calm     94% 0.00in /  0mm
23:15 59.8 °F /  15.4 °C 58.1 °F /  14.5 °C 29.79in /  1008.7hPa Calm     94% 0.00in /  0mm
23:24 59.7 °F /  15.4 °C 58.0 °F /  14.4 °C 29.78in /  1008.4hPa Calm     94% 0.00in /  0mm
23:29 59.9 °F /  15.5 °C 58.2 °F /  14.6 °C 29.78in /  1008.4hPa Calm     94% 0.00in /  0mm
23:34 59.9 °F /  15.5 °C 58.2 °F /  14.6 °C 29.78in /  1008.4hPa Calm   4.0mph /  6.4km/h 94% 0.00in /  0mm
23:39 59.8 °F /  15.4 °C 58.1 °F /  14.5 °C 29.78in /  1008.4hPa SW 1.0mph /  1.6km/h 4.0mph /  6.4km/h 94% 0.00in /  0mm
23:44 60.0 °F /  15.6 °C 58.3 °F /  14.6 °C 29.78in /  1008.4hPa SW 1.0mph /  1.6km/h 3.0mph /  4.8km/h 94% 0.00in /  0mm
23:49 60.5 °F /  15.8 °C 59.1 °F /  15.1 °C 29.79in /  1008.7hPa Calm   4.0mph /  6.4km/h 95% 0.00in /  0mm
23:54 60.7 °F /  15.9 °C 59.3 °F /  15.2 °C 29.78in /  1008.4hPa Calm   4.0mph /  6.4km/h 95% 0.00in /  0mm
23:59 60.7 °F /  15.9 °C 59.3 °F /  15.2 °C 29.79in /  1008.7hPa Calm   3.0mph /  4.8km/h 95% 0.00in /  0mm
Westford Weather
Compliments of Weather Underground

 
 
Current Radar Loop:

Copyright © WestfordWeather.net 2007-2014. All rights reserved.